createdAt,value
2022-12-22T00:01:50.411Z,97247.72
2022-12-22T00:04:10.707Z,97253.59
2022-12-22T00:06:30.830Z,97241.13
2022-12-22T00:08:50.914Z,97235.59
2022-12-22T00:11:10.727Z,97247.72
2022-12-22T00:13:30.695Z,97246.59
2022-12-22T00:15:50.744Z,97242.50
2022-12-22T00:18:10.600Z,97236.13
2022-12-22T00:20:30.539Z,97237.22
2022-12-22T00:22:50.407Z,97231.00
2022-12-22T00:25:10.250Z,97228.38
2022-12-22T00:27:30.036Z,97222.59
2022-12-22T00:29:50.009Z,97213.22
2022-12-22T00:32:09.886Z,97216.84
2022-12-22T00:34:32.643Z,97214.34
2022-12-22T00:36:53.106Z,97207.63
2022-12-22T00:39:13.005Z,97211.13
2022-12-22T00:41:33.241Z,97212.03
2022-12-22T00:43:53.132Z,97200.44
2022-12-22T00:46:12.952Z,97209.34
2022-12-22T00:48:33.084Z,97197.38
2022-12-22T00:50:52.974Z,97191.56
2022-12-22T00:53:12.886Z,97183.97
2022-12-22T00:55:32.692Z,97187.28
2022-12-22T00:57:52.618Z,97181.59
2022-12-22T01:00:12.662Z,97182.03
2022-12-22T01:02:32.602Z,97168.09
2022-12-22T01:04:52.826Z,97177.91
2022-12-22T01:07:12.763Z,97177.56
2022-12-22T01:09:32.626Z,97167.19
2022-12-22T01:11:52.527Z,97168.63
2022-12-22T01:14:12.365Z,97170.19
2022-12-22T01:16:32.297Z,97187.13
2022-12-22T01:18:52.655Z,97062.81
2022-12-22T01:21:12.651Z,97169.13
2022-12-22T01:23:32.661Z,97177.56
2022-12-22T01:25:52.462Z,97169.91
2022-12-22T01:28:12.361Z,97171.69
2022-12-22T01:30:32.198Z,97169.94
2022-12-22T01:32:52.010Z,97163.09
2022-12-22T01:35:11.901Z,97163.22
2022-12-22T01:37:31.734Z,97158.22
2022-12-22T01:39:51.553Z,97154.78
2022-12-22T01:42:11.339Z,97158.22
2022-12-22T01:44:31.221Z,97153.38
2022-12-22T01:46:51.294Z,97159.34
2022-12-22T01:49:11.462Z,97159.84
2022-12-22T01:51:31.326Z,97159.53
2022-12-22T01:53:51.187Z,97160.69
2022-12-22T01:56:11.055Z,97150.69
2022-12-22T01:58:30.843Z,97149.09
2022-12-22T02:00:50.812Z,97146.72
2022-12-22T02:03:10.779Z,97150.22
2022-12-22T02:05:31.011Z,97147.00
2022-12-22T02:07:50.894Z,97151.28
2022-12-22T02:10:10.894Z,97149.66
2022-12-22T02:12:30.734Z,97145.50
2022-12-22T02:14:50.597Z,97137.06
2022-12-22T02:17:10.289Z,97131.97
2022-12-22T02:19:30.186Z,97128.66
2022-12-22T02:21:49.978Z,97137.25
2022-12-22T02:24:09.776Z,97132.19
2022-12-22T02:26:29.599Z,97125.38
2022-12-22T02:28:49.544Z,97128.69
2022-12-22T02:31:09.516Z,97127.88
2022-12-22T02:33:29.446Z,97129.53
2022-12-22T02:35:49.217Z,97129.47
2022-12-22T02:38:09.096Z,97124.19
2022-12-22T02:40:29.043Z,97119.03
2022-12-22T02:42:48.934Z,97127.38
2022-12-22T02:45:08.765Z,97118.50
2022-12-22T02:47:28.767Z,97110.66
2022-12-22T02:49:48.708Z,97109.69
2022-12-22T02:52:08.633Z,97111.28
2022-12-22T02:54:28.563Z,97118.94
2022-12-22T02:56:48.531Z,97093.44
2022-12-22T02:59:08.389Z,97099.94
2022-12-22T03:01:28.480Z,97098.22
2022-12-22T03:03:48.875Z,97096.53
2022-12-22T03:06:09.222Z,97091.44
2022-12-22T03:08:29.146Z,97092.34
2022-12-22T03:10:48.956Z,97084.78
2022-12-22T03:13:08.852Z,97085.75
2022-12-22T03:15:28.691Z,97069.56
2022-12-22T03:17:48.519Z,97067.06
2022-12-22T03:20:08.262Z,97072.28
2022-12-22T03:22:28.271Z,97063.16
2022-12-22T03:24:48.277Z,97052.97
2022-12-22T03:26:49.623Z,97062.44
2022-12-22T03:28:52.129Z,97062.56
2022-12-22T03:30:53.466Z,97055.66
2022-12-22T03:32:54.763Z,97043.78
2022-12-22T03:34:56.088Z,97040.56
2022-12-22T03:36:57.388Z,97037.31
2022-12-22T03:38:58.722Z,97026.28
2022-12-22T03:41:00.118Z,97033.16
2022-12-22T03:43:20.199Z,97025.69
2022-12-22T03:45:40.014Z,97015.34
2022-12-22T03:47:41.351Z,97017.19
2022-12-22T03:49:42.668Z,96997.78
2022-12-22T03:51:43.991Z,97003.00
2022-12-22T03:53:45.343Z,97013.38
2022-12-22T03:55:46.685Z,97008.44
2022-12-22T03:57:47.979Z,97012.13
2022-12-22T03:59:49.312Z,96997.88
2022-12-22T04:01:50.975Z,96990.31
2022-12-22T04:03:52.403Z,96995.25
2022-12-22T04:05:53.737Z,97000.25
2022-12-22T04:07:55.031Z,97000.91
2022-12-22T04:10:15.155Z,96999.84
2022-12-22T04:12:35.135Z,96999.53
2022-12-22T04:14:36.484Z,96998.44
2022-12-22T04:16:37.900Z,96995.69
2022-12-22T04:18:39.301Z,96998.06
2022-12-22T04:20:40.617Z,96993.59
2022-12-22T04:22:41.920Z,96988.31
2022-12-22T04:24:43.222Z,96989.84
2022-12-22T04:26:44.535Z,96983.03
2022-12-22T04:28:45.896Z,96991.38
2022-12-22T04:30:47.228Z,96983.56
2022-12-22T04:32:48.583Z,96984.44
2022-12-22T04:34:49.944Z,96987.75
2022-12-22T04:36:51.235Z,96973.03
2022-12-22T04:38:52.532Z,96968.81
2022-12-22T04:40:53.845Z,96975.59
2022-12-22T04:42:55.158Z,96974.75
2022-12-22T04:44:56.478Z,96973.03
2022-12-22T04:46:57.760Z,96965.41
2022-12-22T04:49:00.505Z,96971.31
2022-12-22T04:51:02.107Z,96963.78
2022-12-22T04:53:03.432Z,96958.59
2022-12-22T04:55:06.476Z,96967.09
2022-12-22T04:57:07.827Z,96964.59
2022-12-22T04:59:09.170Z,96959.63
2022-12-22T05:01:10.641Z,96969.84
2022-12-22T05:03:12.016Z,96958.13
2022-12-22T05:05:13.343Z,96958.25
2022-12-22T05:07:14.676Z,96960.94
2022-12-22T05:09:15.967Z,96956.88
2022-12-22T05:11:17.262Z,96946.06
2022-12-22T05:13:18.606Z,96951.41
2022-12-22T05:15:19.919Z,96944.06
2022-12-22T05:17:21.210Z,96943.44
2022-12-22T05:19:27.399Z,96941.00
2022-12-22T05:21:31.893Z,96936.03
2022-12-22T05:23:33.364Z,96933.53
2022-12-22T05:25:35.525Z,96934.38
2022-12-22T05:27:37.108Z,96927.53
2022-12-22T05:29:38.394Z,96926.72
2022-12-22T05:31:46.781Z,96926.56
2022-12-22T05:33:48.545Z,96928.25
2022-12-22T05:35:49.873Z,96923.78
2022-12-22T05:37:51.178Z,96918.69
2022-12-22T05:39:52.475Z,96919.44
2022-12-22T05:41:53.772Z,96917.50
2022-12-22T05:43:55.071Z,96905.44
2022-12-22T05:45:56.540Z,96899.44
2022-12-22T05:47:57.902Z,96896.69
2022-12-22T05:49:59.247Z,96898.28
2022-12-22T05:52:00.555Z,96901.47
2022-12-22T05:54:01.901Z,96899.75
2022-12-22T05:56:03.227Z,96906.44
2022-12-22T05:58:04.584Z,96901.22
2022-12-22T06:00:05.964Z,96896.00
2022-12-22T06:02:07.371Z,96906.97
2022-12-22T06:04:08.875Z,96898.44
2022-12-22T06:06:10.307Z,96895.03
2022-12-22T06:08:11.638Z,96900.97
2022-12-22T06:10:13.172Z,96896.72
2022-12-22T06:12:14.577Z,96893.38
2022-12-22T06:14:15.875Z,96890.06
2022-12-22T06:16:17.337Z,96894.09
2022-12-22T06:18:18.734Z,96892.41
2022-12-22T06:20:20.024Z,96891.59
2022-12-22T06:22:21.444Z,96894.97
2022-12-22T06:24:22.738Z,96891.66
2022-12-22T06:26:24.030Z,96884.94
2022-12-22T06:28:25.413Z,96888.34
2022-12-22T06:30:32.889Z,96881.19
2022-12-22T06:32:35.018Z,96876.44
2022-12-22T06:34:36.337Z,96878.56
2022-12-22T06:36:38.914Z,96882.81
2022-12-22T06:38:40.316Z,96872.69
2022-12-22T06:40:41.775Z,96881.34
2022-12-22T06:43:08.157Z,96879.63
2022-12-22T06:45:10.231Z,96875.38
2022-12-22T06:47:11.582Z,96872.81
2022-12-22T06:49:12.901Z,96870.31
2022-12-22T06:51:14.307Z,96873.69
2022-12-22T06:53:15.663Z,96876.88
2022-12-22T06:55:17.003Z,96867.59
2022-12-22T06:57:18.302Z,96866.75
2022-12-22T06:59:19.600Z,96864.25
2022-12-22T07:01:20.945Z,96871.91
2022-12-22T07:03:22.642Z,96863.34
2022-12-22T07:05:24.158Z,96860.09
2022-12-22T07:07:25.530Z,96870.50
2022-12-22T07:09:26.935Z,96863.00
2022-12-22T07:11:28.259Z,96854.63
2022-12-22T07:13:29.659Z,96857.09
2022-12-22T07:15:31.008Z,96851.03
2022-12-22T07:17:32.350Z,96856.94
2022-12-22T07:19:33.646Z,96856.16
2022-12-22T07:21:34.988Z,96851.78
2022-12-22T07:23:36.320Z,96853.47
2022-12-22T07:25:37.665Z,96866.31
2022-12-22T07:27:38.994Z,96851.00
2022-12-22T07:29:41.696Z,96854.34
2022-12-22T07:31:43.080Z,96853.47
2022-12-22T07:33:44.458Z,96846.63
2022-12-22T07:35:45.743Z,96833.72
2022-12-22T07:37:47.050Z,96837.00
2022-12-22T07:39:48.354Z,96835.16
2022-12-22T07:42:08.176Z,96829.00
2022-12-22T07:44:09.479Z,96823.31
2022-12-22T07:46:10.825Z,96817.34
2022-12-22T07:48:31.060Z,96816.88
2022-12-22T07:50:32.951Z,96815.47
2022-12-22T07:52:34.283Z,96812.09
2022-12-22T07:54:41.384Z,96809.41
2022-12-22T07:56:43.467Z,96808.91
2022-12-22T07:58:44.795Z,96798.03
2022-12-22T08:00:46.138Z,96799.06
2022-12-22T08:02:47.481Z,96805.09
2022-12-22T08:04:48.872Z,96799.97
2022-12-22T08:06:50.257Z,96800.88
2022-12-22T08:08:51.554Z,96813.69
2022-12-22T08:10:55.923Z,96801.00
2022-12-22T08:12:57.469Z,96807.91
2022-12-22T08:14:59.606Z,96806.31
2022-12-22T08:17:00.954Z,96795.19
2022-12-22T08:19:02.250Z,96802.97
2022-12-22T08:21:03.548Z,96794.50
2022-12-22T08:23:04.927Z,96802.97
2022-12-22T08:25:06.297Z,96789.41
2022-12-22T08:27:07.607Z,96789.25
2022-12-22T08:29:08.945Z,96788.44
2022-12-22T08:31:13.219Z,96791.03
2022-12-22T08:33:14.543Z,96792.75
2022-12-22T08:35:15.840Z,96792.91
2022-12-22T08:37:17.145Z,96787.75
2022-12-22T08:39:18.448Z,96793.56
2022-12-22T08:41:42.270Z,96794.53
2022-12-22T08:43:43.585Z,96791.25
2022-12-22T08:45:44.881Z,96799.03
2022-12-22T08:47:46.185Z,96794.38
2022-12-22T08:49:47.588Z,96791.63
2022-12-22T08:51:48.923Z,96781.13
2022-12-22T08:54:06.692Z,96791.16
2022-12-22T08:56:08.307Z,96781.97
2022-12-22T08:58:09.603Z,96781.59
2022-12-22T09:00:11.082Z,96787.34
2022-12-22T09:02:12.466Z,96779.81
2022-12-22T09:04:13.866Z,96773.97
2022-12-22T09:06:15.170Z,96774.75
2022-12-22T09:08:16.483Z,96784.94
2022-12-22T09:10:17.786Z,96772.94
2022-12-22T09:12:19.145Z,96778.06
2022-12-22T09:14:20.455Z,96757.63
2022-12-22T09:16:21.852Z,96753.44
2022-12-22T09:18:23.206Z,96750.13
2022-12-22T09:20:24.491Z,96733.97
2022-12-22T09:22:28.160Z,96733.88
2022-12-22T09:24:30.211Z,96719.41
2022-12-22T09:26:31.505Z,96723.63
2022-12-22T09:28:32.841Z,96720.22
2022-12-22T09:30:34.169Z,96726.09
2022-12-22T09:32:35.491Z,96729.53
2022-12-22T09:34:36.798Z,96733.88
2022-12-22T09:36:38.128Z,96727.13
2022-12-22T09:38:39.442Z,96722.81
2022-12-22T09:40:40.774Z,96724.50
2022-12-22T09:42:42.106Z,96720.28
2022-12-22T09:44:44.903Z,96712.69
2022-12-22T09:46:46.248Z,96711.94
2022-12-22T09:48:47.792Z,96700.81
2022-12-22T09:50:49.148Z,96713.72
2022-12-22T09:52:50.600Z,96705.25
2022-12-22T09:54:51.958Z,96701.97
2022-12-22T09:56:53.266Z,96706.31
2022-12-22T09:58:54.811Z,96694.31
2022-12-22T10:00:56.172Z,96695.06
2022-12-22T10:02:57.605Z,96702.81
2022-12-22T10:04:58.963Z,96702.84
2022-12-22T10:07:00.347Z,96698.59
2022-12-22T10:09:05.366Z,96688.38
2022-12-22T10:11:07.646Z,96690.06
2022-12-22T10:13:08.939Z,96688.56
2022-12-22T10:15:10.277Z,96683.72
2022-12-22T10:17:11.647Z,96681.88
2022-12-22T10:19:13.022Z,96671.41
2022-12-22T10:21:14.510Z,96678.94
2022-12-22T10:23:15.843Z,96675.44
2022-12-22T10:25:17.136Z,96675.34
2022-12-22T10:27:18.489Z,96677.09
2022-12-22T10:29:19.820Z,96673.75
2022-12-22T10:31:21.244Z,96663.91
2022-12-22T10:33:22.627Z,96657.06
2022-12-22T10:35:23.931Z,96657.84
2022-12-22T10:37:28.321Z,96660.13
2022-12-22T10:39:29.699Z,96662.03
2022-12-22T10:41:31.079Z,96650.03
2022-12-22T10:43:32.506Z,96656.22
2022-12-22T10:45:33.907Z,96647.44
2022-12-22T10:47:35.314Z,96662.72
2022-12-22T10:51:36.779Z,96649.13
2022-12-22T10:53:38.110Z,96649.63
2022-12-22T10:55:39.411Z,96644.72
2022-12-22T10:57:40.734Z,96649.13
2022-12-22T10:59:42.232Z,96646.66
2022-12-22T11:01:43.601Z,96641.56
2022-12-22T11:03:45.130Z,96632.31
2022-12-22T11:05:46.493Z,96631.34
2022-12-22T11:07:47.945Z,96518.78
2022-12-22T11:09:49.352Z,96628.03
2022-12-22T11:11:51.934Z,96631.47
2022-12-22T11:13:54.230Z,96631.56
2022-12-22T11:15:55.522Z,96614.28
2022-12-22T11:17:56.847Z,96617.25
2022-12-22T11:19:58.183Z,96613.97
2022-12-22T11:21:59.484Z,96623.25
2022-12-22T11:24:00.817Z,96614.94
2022-12-22T11:26:02.143Z,96593.75
2022-12-22T11:28:03.528Z,96598.94
2022-12-22T11:30:04.886Z,96603.97
2022-12-22T11:32:06.186Z,96600.66
2022-12-22T11:34:07.500Z,96599.84
2022-12-22T11:36:09.836Z,96576.09
2022-12-22T11:38:11.177Z,96589.75
2022-12-22T11:40:12.507Z,96594.03
2022-12-22T11:42:13.808Z,96578.88
2022-12-22T11:44:15.142Z,96573.75
2022-12-22T11:46:16.507Z,96572.94
2022-12-22T11:48:17.807Z,96574.66
2022-12-22T11:50:57.682Z,96567.81
2022-12-22T11:52:40.417Z,96566.09
2022-12-22T11:54:41.899Z,96560.91
2022-12-22T11:56:43.533Z,96560.06
2022-12-22T11:58:44.838Z,96558.50
2022-12-22T12:01:13.715Z,96558.50
2022-12-22T12:03:07.571Z,96555.94
2022-12-22T12:05:08.943Z,96549.34
2022-12-22T12:07:10.287Z,96549.47
2022-12-22T12:09:11.660Z,96557.13
2022-12-22T12:11:18.136Z,96550.50
2022-12-22T12:13:27.439Z,96549.97
2022-12-22T12:15:32.012Z,96539.75
2022-12-22T12:17:33.303Z,96553.13
2022-12-22T12:19:34.599Z,96546.31
2022-12-22T12:21:36.266Z,96541.13
2022-12-22T12:23:37.561Z,96543.75
2022-12-22T12:25:38.875Z,96545.88
2022-12-22T12:27:40.219Z,96528.47
2022-12-22T12:29:41.517Z,96521.16
2022-12-22T12:31:42.852Z,96525.78
2022-12-22T12:33:44.147Z,96534.47
2022-12-22T12:35:45.506Z,96526.69
2022-12-22T12:37:46.824Z,96531.09
2022-12-22T12:39:48.128Z,96544.34
2022-12-22T12:41:49.485Z,96533.97
2022-12-22T12:43:51.864Z,96529.59
2022-12-22T12:45:55.297Z,96526.16
2022-12-22T12:47:56.639Z,96526.16
2022-12-22T12:49:58.036Z,96528.63
2022-12-22T12:52:01.483Z,96526.97
2022-12-22T12:54:02.792Z,96527.78
2022-12-22T12:56:04.103Z,96529.38
2022-12-22T12:58:05.445Z,96526.69
2022-12-22T13:00:06.779Z,96530.16
2022-12-22T13:02:08.328Z,96386.94
2022-12-22T13:04:10.787Z,96536.84
2022-12-22T13:06:12.220Z,96544.41
2022-12-22T13:08:15.396Z,96549.47
2022-12-22T13:10:16.758Z,96547.66
2022-12-22T13:12:24.312Z,96540.75
2022-12-22T13:14:26.069Z,96546.56
2022-12-22T13:16:27.728Z,96542.28
2022-12-22T13:18:29.349Z,96535.38
2022-12-22T13:20:31.234Z,96537.03
2022-12-22T13:22:32.581Z,96543.09
2022-12-22T13:24:33.901Z,96543.94
2022-12-22T13:26:35.273Z,96535.72
2022-12-22T13:28:36.570Z,96542.81
2022-12-22T13:30:37.863Z,96537.19
2022-12-22T13:32:39.239Z,96547.72
2022-12-22T13:35:04.362Z,96541.94
2022-12-22T13:37:01.899Z,96548.81
2022-12-22T13:39:09.007Z,96540.97
2022-12-22T13:41:10.320Z,96539.16
2022-12-22T13:43:11.729Z,96534.81
2022-12-22T13:45:13.048Z,96541.59
2022-12-22T13:47:14.872Z,96538.81
2022-12-22T13:49:30.260Z,96538.00
2022-12-22T13:51:37.628Z,96534.56
2022-12-22T13:54:06.976Z,96534.47
2022-12-22T13:56:00.379Z,96538.59
2022-12-22T13:58:01.683Z,96537.69
2022-12-22T14:00:02.984Z,96533.38
2022-12-22T14:02:04.423Z,96536.75
2022-12-22T14:04:07.936Z,96537.47
2022-12-22T14:06:09.528Z,96531.59
2022-12-22T14:08:12.735Z,96528.88
2022-12-22T14:10:14.035Z,96523.78
2022-12-22T14:12:15.326Z,96524.59
2022-12-22T14:14:16.807Z,96516.94
2022-12-22T14:16:18.221Z,96516.91
2022-12-22T14:18:19.579Z,96522.75
2022-12-22T14:20:20.892Z,96518.53
2022-12-22T14:22:22.223Z,96515.94
2022-12-22T14:24:23.573Z,96526.06
2022-12-22T14:26:24.948Z,96521.88
2022-12-22T14:28:26.307Z,96528.63
2022-12-22T14:30:28.542Z,96521.78
2022-12-22T14:32:32.259Z,96521.69
2022-12-22T14:34:33.625Z,96531.09
2022-12-22T14:36:40.566Z,96528.47
2022-12-22T14:38:43.335Z,96517.56
2022-12-22T14:40:45.327Z,96520.94
2022-12-22T14:42:46.907Z,96533.72
2022-12-22T14:44:48.257Z,96532.88
2022-12-22T14:46:49.595Z,96526.00
2022-12-22T14:48:50.891Z,96532.00
2022-12-22T14:50:52.201Z,96537.19
2022-12-22T14:52:53.522Z,96534.69
2022-12-22T14:54:54.854Z,96539.75
2022-12-22T14:56:56.154Z,96536.34
2022-12-22T14:58:57.447Z,96532.09
2022-12-22T15:00:58.797Z,96520.97
2022-12-22T15:03:00.176Z,96531.53
2022-12-22T15:05:01.611Z,96537.38
2022-12-22T15:07:02.919Z,96540.72
2022-12-22T15:09:05.441Z,96544.06
2022-12-22T15:11:06.802Z,96537.31
2022-12-22T15:13:08.114Z,96538.16
2022-12-22T15:15:09.450Z,96537.31
2022-12-22T15:17:10.957Z,96547.53
2022-12-22T15:19:12.346Z,96553.47
2022-12-22T15:21:13.785Z,96542.44
2022-12-22T15:23:17.127Z,96546.63
2022-12-22T15:25:18.688Z,96550.84
2022-12-22T15:27:20.040Z,96541.50
2022-12-22T15:29:24.224Z,96549.13
2022-12-22T15:31:25.641Z,96533.81
2022-12-22T15:33:27.016Z,96543.19
2022-12-22T15:35:28.313Z,96544.84
2022-12-22T15:37:29.741Z,96545.72
2022-12-22T15:39:31.037Z,96543.09
2022-12-22T15:41:32.342Z,96549.03
2022-12-22T15:45:56.556Z,96551.53
2022-12-22T15:47:58.004Z,96557.44
2022-12-22T15:49:59.298Z,96559.25
2022-12-22T15:52:00.631Z,96567.75
2022-12-22T15:54:04.727Z,96564.31
2022-12-22T15:56:06.047Z,96567.81
2022-12-22T15:58:07.351Z,96564.31
2022-12-22T16:00:08.647Z,96569.53
2022-12-22T16:02:10.201Z,96566.97
2022-12-22T16:04:11.839Z,96570.38
2022-12-22T16:06:13.752Z,96571.25
2022-12-22T16:08:18.083Z,96578.91
2022-12-22T16:10:19.834Z,96572.22
2022-12-22T16:12:21.157Z,96587.53
2022-12-22T16:14:22.462Z,96581.59
2022-12-22T16:16:23.881Z,96591.81
2022-12-22T16:18:25.227Z,96578.16
2022-12-22T16:20:26.565Z,96585.03
2022-12-22T16:22:27.896Z,96586.00
2022-12-22T16:24:29.222Z,96586.09
2022-12-22T16:26:33.439Z,96586.84
2022-12-22T16:28:34.985Z,96596.22
2022-12-22T16:30:36.278Z,96591.94
2022-12-22T16:32:37.740Z,96608.19
2022-12-22T16:34:39.224Z,96606.28
2022-12-22T16:36:40.572Z,96608.09
2022-12-22T16:38:41.988Z,96614.03
2022-12-22T16:40:43.369Z,96614.09
2022-12-22T16:45:04.445Z,96632.03
2022-12-22T16:47:05.871Z,96642.13
2022-12-22T16:49:07.210Z,96647.13
2022-12-22T16:51:08.588Z,96647.91
2022-12-22T16:53:09.886Z,96651.28
2022-12-22T16:55:11.187Z,96656.50
2022-12-22T16:57:12.519Z,96651.41
2022-12-22T16:59:13.834Z,96649.69
2022-12-22T17:01:17.864Z,96650.66
2022-12-22T17:03:19.264Z,96654.13
2022-12-22T17:05:20.992Z,96654.25
2022-12-22T17:07:22.384Z,96649.19
2022-12-22T17:09:23.754Z,96650.84
2022-12-22T17:11:25.117Z,96658.56
2022-12-22T17:13:26.421Z,96656.09
2022-12-22T17:15:27.766Z,96656.09
2022-12-22T17:17:35.452Z,96666.94
2022-12-22T17:19:39.839Z,96669.47
2022-12-22T17:21:41.137Z,96672.13
2022-12-22T17:23:43.104Z,96678.19
2022-12-22T17:25:44.444Z,96676.31
2022-12-22T17:27:45.902Z,96680.53
2022-12-22T17:29:47.431Z,96674.59
2022-12-22T17:31:50.079Z,96682.19
2022-12-22T17:33:51.433Z,96678.84
2022-12-22T17:35:53.293Z,96680.53
2022-12-22T17:37:54.603Z,96694.03
2022-12-22T17:39:58.962Z,96677.91
2022-12-22T17:42:00.353Z,96683.84
2022-12-22T17:44:04.460Z,96699.09
2022-12-22T17:46:05.794Z,96697.44
2022-12-22T17:48:07.133Z,96709.38
2022-12-22T17:50:08.439Z,96708.53
2022-12-22T17:52:09.785Z,96712.84
2022-12-22T17:54:11.112Z,96711.28
2022-12-22T17:56:12.427Z,96714.59
2022-12-22T17:58:13.746Z,96724.69
2022-12-22T18:00:18.275Z,96720.50
2022-12-22T18:02:20.026Z,96726.59
2022-12-22T18:04:22.057Z,96726.03
2022-12-22T18:06:23.469Z,96732.34
2022-12-22T18:08:24.799Z,96732.59
2022-12-22T18:10:26.112Z,96734.50
2022-12-22T18:12:27.434Z,96731.38
2022-12-22T18:14:28.770Z,96740.09
2022-12-22T18:16:30.166Z,96741.97
2022-12-22T18:18:32.219Z,96736.03
2022-12-22T18:20:33.568Z,96739.34
2022-12-22T18:22:34.854Z,96759.53
2022-12-22T18:24:36.186Z,96749.22
2022-12-22T18:26:38.187Z,96755.25
2022-12-22T18:28:39.527Z,96748.34
2022-12-22T18:30:40.818Z,96750.69
2022-12-22T18:32:42.152Z,96766.78
2022-12-22T18:34:43.493Z,96760.75
2022-12-22T18:36:45.739Z,96762.38
2022-12-22T18:38:47.411Z,96765.69
2022-12-22T18:40:48.711Z,96768.19
2022-12-22T18:42:50.022Z,96776.63
2022-12-22T18:44:51.390Z,96770.56
2022-12-22T18:46:53.175Z,96781.53
2022-12-22T18:48:57.814Z,96790.78
2022-12-22T18:51:01.813Z,96794.13
2022-12-22T18:53:03.200Z,96796.66
2022-12-22T18:55:04.526Z,96793.22
2022-12-22T18:57:05.824Z,96794.88
2022-12-22T18:59:07.168Z,96793.09
2022-12-22T19:01:08.555Z,96793.84
2022-12-22T19:03:10.090Z,96791.28
2022-12-22T19:05:11.473Z,96797.22
2022-12-22T19:07:12.777Z,96790.38
2022-12-22T19:09:14.153Z,96791.25
2022-12-22T19:11:15.506Z,96791.13
2022-12-22T19:13:16.832Z,96786.91
2022-12-22T19:15:18.242Z,96798.72
2022-12-22T19:17:19.568Z,96786.78
2022-12-22T19:19:24.150Z,96795.28
2022-12-22T19:21:25.593Z,96800.31
2022-12-22T19:23:26.926Z,96796.91
2022-12-22T19:25:28.476Z,96797.69
2022-12-22T19:27:29.799Z,96799.34
2022-12-22T19:29:31.161Z,96795.16
2022-12-22T19:31:33.252Z,96805.38
2022-12-22T19:33:35.159Z,96799.41
2022-12-22T19:35:36.517Z,96799.41
2022-12-22T19:37:37.801Z,96801.91
2022-12-22T19:39:39.102Z,96801.13
2022-12-22T19:41:43.466Z,96807.91
2022-12-22T19:43:44.759Z,96804.53
2022-12-22T19:45:46.099Z,96799.34
2022-12-22T19:47:47.542Z,96796.09
2022-12-22T19:49:51.587Z,96801.22
2022-12-22T19:51:52.931Z,96802.00
2022-12-22T19:53:54.384Z,96802.00
2022-12-22T19:55:55.674Z,96793.47
2022-12-22T19:57:57.011Z,96807.13
2022-12-22T19:59:58.406Z,96805.41
2022-12-22T20:01:59.951Z,96805.41
2022-12-22T20:04:01.462Z,96800.38
2022-12-22T20:06:02.757Z,96815.63
2022-12-22T20:08:04.110Z,96814.84
2022-12-22T20:10:05.446Z,96813.19
2022-12-22T20:12:09.754Z,96815.69
2022-12-22T20:14:11.051Z,96823.34
2022-12-22T20:16:12.370Z,96825.06
2022-12-22T20:18:19.355Z,96820.09
2022-12-22T20:20:20.691Z,96823.47
2022-12-22T20:22:22.027Z,96830.19
2022-12-22T20:24:23.442Z,96836.16
2022-12-22T20:26:24.973Z,96822.63
2022-12-22T20:28:26.268Z,96826.09
2022-12-22T20:30:27.779Z,96833.69
2022-12-22T20:32:29.215Z,96833.75
2022-12-22T20:34:30.575Z,96822.72
2022-12-22T20:36:32.107Z,96823.56
2022-12-22T20:38:33.548Z,96827.75
2022-12-22T20:40:34.931Z,96831.88
2022-12-22T20:42:39.091Z,96826.78
2022-12-22T20:44:40.395Z,96829.34
2022-12-22T20:47:01.736Z,96829.53
2022-12-22T20:49:03.086Z,96840.59
2022-12-22T20:51:04.502Z,96831.13
2022-12-22T20:53:05.922Z,96836.88
2022-12-22T20:55:07.240Z,96838.66
2022-12-22T20:57:08.560Z,96826.88
2022-12-22T20:59:09.850Z,96830.25
2022-12-22T21:01:11.206Z,96834.31
2022-12-22T21:03:12.636Z,96831.66
2022-12-22T21:05:14.949Z,96829.16
2022-12-22T21:07:16.375Z,96836.75
2022-12-22T21:09:17.760Z,96834.91
2022-12-22T21:11:19.089Z,96830.81
2022-12-22T21:13:20.515Z,96829.09
2022-12-22T21:15:21.809Z,96829.84
2022-12-22T21:17:23.307Z,96827.38
2022-12-22T21:19:24.643Z,96832.41
2022-12-22T21:21:26.081Z,96833.31
2022-12-22T21:23:27.420Z,96828.13
2022-12-22T21:25:28.735Z,96824.72
2022-12-22T21:27:31.022Z,96829.09
2022-12-22T21:29:32.328Z,96828.13
2022-12-22T21:31:33.727Z,96834.13
2022-12-22T21:33:35.602Z,96842.56
2022-12-22T21:35:36.940Z,96833.25
2022-12-22T21:37:38.291Z,96843.25
2022-12-22T21:39:41.839Z,96843.34
2022-12-22T21:42:01.782Z,96840.06
2022-12-22T21:44:03.223Z,96832.50
2022-12-22T21:46:04.590Z,96826.66
2022-12-22T21:48:05.980Z,96825.78
2022-12-22T21:50:07.280Z,96832.59
2022-12-22T21:52:08.590Z,96831.06
2022-12-22T21:54:09.955Z,96819.97
2022-12-22T21:56:11.252Z,96821.63
2022-12-22T21:58:12.587Z,96824.22
2022-12-22T22:00:13.976Z,96814.03
2022-12-22T22:02:15.379Z,96816.69
2022-12-22T22:04:16.786Z,96809.25
2022-12-22T22:06:18.084Z,96812.66
2022-12-22T22:08:19.393Z,96805.00
2022-12-22T22:10:20.731Z,96803.19
2022-12-22T22:12:35.100Z,96805.81
2022-12-22T22:14:36.423Z,96805.84
2022-12-22T22:16:37.771Z,96805.00
2022-12-22T22:18:39.142Z,96801.50
2022-12-22T22:20:40.466Z,96809.16
2022-12-22T22:22:41.762Z,96806.75
2022-12-22T22:24:43.062Z,96808.31
2022-12-22T22:26:44.359Z,96809.34
2022-12-22T22:28:45.703Z,96805.34
2022-12-22T22:30:47.004Z,96802.69
2022-12-22T22:32:48.354Z,96807.34
2022-12-22T22:34:49.684Z,96808.00
2022-12-22T22:36:50.999Z,96799.13
2022-12-22T22:38:52.338Z,96802.88
2022-12-22T22:40:53.642Z,96792.63
2022-12-22T22:42:56.837Z,96778.34
2022-12-22T22:44:58.218Z,96781.59
2022-12-22T22:47:00.103Z,96787.16
2022-12-22T22:49:01.476Z,96778.84
2022-12-22T22:51:02.799Z,96775.53
2022-12-22T22:53:04.098Z,96778.72
2022-12-22T22:55:05.395Z,96777.34
2022-12-22T22:57:06.818Z,96766.28
2022-12-22T22:59:08.151Z,96766.22
2022-12-22T23:01:09.463Z,96756.31
2022-12-22T23:03:10.905Z,96756.19
2022-12-22T23:05:18.582Z,96747.63
2022-12-22T23:07:23.610Z,96742.78
2022-12-22T23:09:24.915Z,96750.69
2022-12-22T23:11:26.275Z,96736.97
2022-12-22T23:13:27.575Z,96740.31
2022-12-22T23:15:28.910Z,96741.06
2022-12-22T23:17:30.333Z,96734.16
2022-12-22T23:19:31.728Z,96735.31
2022-12-22T23:21:33.638Z,96734.97
2022-12-22T23:23:34.981Z,96731.81
2022-12-22T23:25:36.281Z,96721.63
2022-12-22T23:27:37.608Z,96718.31
2022-12-22T23:29:39.116Z,96716.31
2022-12-22T23:31:40.431Z,96709.56
2022-12-22T23:33:41.801Z,96709.28
2022-12-22T23:35:43.130Z,96703.56
2022-12-22T23:37:44.418Z,96700.50
2022-12-22T23:39:45.711Z,96702.84
2022-12-22T23:41:47.083Z,96690.06
2022-12-22T23:43:48.427Z,96697.41
2022-12-22T23:45:49.723Z,96686.16
2022-12-22T23:47:51.066Z,96690.94
2022-12-22T23:49:52.358Z,96690.00
2022-12-22T23:51:53.686Z,96693.38
2022-12-22T23:53:55.040Z,96700.06
2022-12-22T23:55:56.417Z,96697.56
2022-12-22T23:57:57.728Z,96700.72
2022-12-22T23:59:59.019Z,96698.25
